sensor_id;sensor_type;location;lat;lon;timestamp;P1;durP1;ratioP1;P2;durP2;ratioP2
20445;SDS011;10382;49.140;9.234;2023-12-22T00:00:54;4.57;;;2.30;;
20445;SDS011;10382;49.140;9.234;2023-12-22T00:03:21;2.53;;;1.37;;
20445;SDS011;10382;49.140;9.234;2023-12-22T00:05:48;1.60;;;1.30;;
20445;SDS011;10382;49.140;9.234;2023-12-22T00:08:15;1.37;;;1.37;;
20445;SDS011;10382;49.140;9.234;2023-12-22T00:10:43;3.13;;;1.47;;
20445;SDS011;10382;49.140;9.234;2023-12-22T00:13:10;1.57;;;1.47;;
20445;SDS011;10382;49.140;9.234;2023-12-22T00:15:37;1.60;;;1.10;;
20445;SDS011;10382;49.140;9.234;2023-12-22T00:18:04;2.27;;;1.80;;
20445;SDS011;10382;49.140;9.234;2023-12-22T00:20:31;0.90;;;0.90;;
20445;SDS011;10382;49.140;9.234;2023-12-22T00:22:58;1.60;;;1.40;;
20445;SDS011;10382;49.140;9.234;2023-12-22T00:25:25;1.37;;;1.27;;
20445;SDS011;10382;49.140;9.234;2023-12-22T00:27:53;5.30;;;0.77;;
20445;SDS011;10382;49.140;9.234;2023-12-22T00:30:20;1.10;;;1.10;;
20445;SDS011;10382;49.140;9.234;2023-12-22T00:32:49;1.10;;;1.10;;
20445;SDS011;10382;49.140;9.234;2023-12-22T00:35:16;1.40;;;1.30;;
20445;SDS011;10382;49.140;9.234;2023-12-22T00:37:43;0.70;;;0.70;;
20445;SDS011;10382;49.140;9.234;2023-12-22T00:40:09;1.43;;;1.23;;
20445;SDS011;10382;49.140;9.234;2023-12-22T00:42:36;0.80;;;0.80;;
20445;SDS011;10382;49.140;9.234;2023-12-22T00:45:05;2.47;;;2.15;;
20445;SDS011;10382;49.140;9.234;2023-12-22T00:47:33;2.17;;;1.83;;
20445;SDS011;10382;49.140;9.234;2023-12-22T00:50:01;2.87;;;2.60;;
20445;SDS011;10382;49.140;9.234;2023-12-22T00:52:29;3.57;;;2.53;;
20445;SDS011;10382;49.140;9.234;2023-12-22T00:54:56;2.50;;;1.30;;
20445;SDS011;10382;49.140;9.234;2023-12-22T00:57:23;1.80;;;1.70;;
20445;SDS011;10382;49.140;9.234;2023-12-22T00:59:50;1.00;;;1.00;;
20445;SDS011;10382;49.140;9.234;2023-12-22T01:02:18;1.23;;;1.23;;
20445;SDS011;10382;49.140;9.234;2023-12-22T01:04:45;0.80;;;0.80;;
20445;SDS011;10382;49.140;9.234;2023-12-22T01:07:12;15.37;;;9.73;;
20445;SDS011;10382;49.140;9.234;2023-12-22T01:09:39;8.60;;;6.30;;
20445;SDS011;10382;49.140;9.234;2023-12-22T01:12:06;5.47;;;4.83;;
20445;SDS011;10382;49.140;9.234;2023-12-22T01:14:34;9.87;;;7.50;;
20445;SDS011;10382;49.140;9.234;2023-12-22T01:17:01;6.00;;;3.87;;
20445;SDS011;10382;49.140;9.234;2023-12-22T01:19:29;6.30;;;4.90;;
20445;SDS011;10382;49.140;9.234;2023-12-22T01:21:56;6.10;;;2.23;;
20445;SDS011;10382;49.140;9.234;2023-12-22T01:24:23;2.83;;;2.60;;
20445;SDS011;10382;49.140;9.234;2023-12-22T01:26:50;12.10;;;7.57;;
20445;SDS011;10382;49.140;9.234;2023-12-22T01:29:17;7.45;;;4.25;;
20445;SDS011;10382;49.140;9.234;2023-12-22T01:31:43;3.07;;;2.30;;
20445;SDS011;10382;49.140;9.234;2023-12-22T01:34:10;1.70;;;1.57;;
20445;SDS011;10382;49.140;9.234;2023-12-22T01:36:39;1.50;;;1.40;;
20445;SDS011;10382;49.140;9.234;2023-12-22T01:39:05;3.80;;;2.17;;
20445;SDS011;10382;49.140;9.234;2023-12-22T01:41:32;2.13;;;2.00;;
20445;SDS011;10382;49.140;9.234;2023-12-22T01:43:59;3.50;;;1.73;;
20445;SDS011;10382;49.140;9.234;2023-12-22T01:46:26;1.30;;;1.30;;
20445;SDS011;10382;49.140;9.234;2023-12-22T01:48:53;1.23;;;1.13;;
20445;SDS011;10382;49.140;9.234;2023-12-22T01:51:21;0.87;;;0.87;;
20445;SDS011;10382;49.140;9.234;2023-12-22T01:53:49;2.20;;;1.43;;
20445;SDS011;10382;49.140;9.234;2023-12-22T01:56:17;1.60;;;1.20;;
20445;SDS011;10382;49.140;9.234;2023-12-22T01:58:45;1.43;;;1.20;;
20445;SDS011;10382;49.140;9.234;2023-12-22T02:01:13;3.50;;;1.87;;
20445;SDS011;10382;49.140;9.234;2023-12-22T02:03:40;1.47;;;1.20;;
20445;SDS011;10382;49.140;9.234;2023-12-22T02:06:07;3.42;;;1.40;;
20445;SDS011;10382;49.140;9.234;2023-12-22T02:08:34;1.30;;;1.20;;
20445;SDS011;10382;49.140;9.234;2023-12-22T02:11:04;3.42;;;1.60;;
20445;SDS011;10382;49.140;9.234;2023-12-22T02:13:31;2.33;;;1.50;;
20445;SDS011;10382;49.140;9.234;2023-12-22T02:16:00;2.65;;;1.77;;
20445;SDS011;10382;49.140;9.234;2023-12-22T02:18:32;1.60;;;1.50;;
20445;SDS011;10382;49.140;9.234;2023-12-22T02:21:01;7.07;;;1.80;;
20445;SDS011;10382;49.140;9.234;2023-12-22T02:23:30;2.15;;;1.15;;
20445;SDS011;10382;49.140;9.234;2023-12-22T02:25:57;5.50;;;2.38;;
20445;SDS011;10382;49.140;9.234;2023-12-22T02:28:32;1.63;;;1.23;;
20445;SDS011;10382;49.140;9.234;2023-12-22T02:31:02;2.87;;;1.30;;
20445;SDS011;10382;49.140;9.234;2023-12-22T02:33:36;2.47;;;1.20;;
20445;SDS011;10382;49.140;9.234;2023-12-22T02:36:05;1.98;;;1.58;;
20445;SDS011;10382;49.140;9.234;2023-12-22T02:38:36;2.05;;;1.00;;
20445;SDS011;10382;49.140;9.234;2023-12-22T02:41:05;3.28;;;1.20;;
20445;SDS011;10382;49.140;9.234;2023-12-22T02:43:33;8.07;;;1.57;;
20445;SDS011;10382;49.140;9.234;2023-12-22T02:46:00;4.13;;;2.07;;
20445;SDS011;10382;49.140;9.234;2023-12-22T02:48:27;4.53;;;1.40;;
20445;SDS011;10382;49.140;9.234;2023-12-22T02:50:54;7.30;;;1.52;;
20445;SDS011;10382;49.140;9.234;2023-12-22T02:53:21;1.80;;;1.25;;
20445;SDS011;10382;49.140;9.234;2023-12-22T02:55:49;3.70;;;1.60;;
20445;SDS011;10382;49.140;9.234;2023-12-22T02:58:16;1.33;;;1.23;;
20445;SDS011;10382;49.140;9.234;2023-12-22T03:00:43;6.43;;;2.40;;
20445;SDS011;10382;49.140;9.234;2023-12-22T03:03:11;5.60;;;2.60;;
20445;SDS011;10382;49.140;9.234;2023-12-22T03:05:38;6.60;;;2.27;;
20445;SDS011;10382;49.140;9.234;2023-12-22T03:08:05;7.80;;;3.53;;
20445;SDS011;10382;49.140;9.234;2023-12-22T03:10:32;5.80;;;3.13;;
20445;SDS011;10382;49.140;9.234;2023-12-22T03:13:01;1.93;;;1.63;;
20445;SDS011;10382;49.140;9.234;2023-12-22T03:15:28;6.17;;;1.57;;
20445;SDS011;10382;49.140;9.234;2023-12-22T03:17:55;8.93;;;2.40;;
20445;SDS011;10382;49.140;9.234;2023-12-22T03:20:22;6.47;;;2.37;;
20445;SDS011;10382;49.140;9.234;2023-12-22T03:22:49;17.13;;;2.27;;
20445;SDS011;10382;49.140;9.234;2023-12-22T03:25:16;5.30;;;2.07;;
20445;SDS011;10382;49.140;9.234;2023-12-22T03:27:42;5.63;;;2.23;;
20445;SDS011;10382;49.140;9.234;2023-12-22T03:30:11;7.40;;;2.80;;
20445;SDS011;10382;49.140;9.234;2023-12-22T03:32:39;6.03;;;1.97;;
20445;SDS011;10382;49.140;9.234;2023-12-22T03:35:06;8.40;;;2.47;;
20445;SDS011;10382;49.140;9.234;2023-12-22T03:37:32;11.60;;;2.50;;
20445;SDS011;10382;49.140;9.234;2023-12-22T03:39:59;8.13;;;2.20;;
20445;SDS011;10382;49.140;9.234;2023-12-22T03:42:26;4.07;;;1.50;;
20445;SDS011;10382;49.140;9.234;2023-12-22T03:44:53;12.07;;;2.87;;
20445;SDS011;10382;49.140;9.234;2023-12-22T03:47:22;6.13;;;1.97;;
20445;SDS011;10382;49.140;9.234;2023-12-22T03:49:49;7.83;;;3.23;;
20445;SDS011;10382;49.140;9.234;2023-12-22T03:52:16;8.50;;;3.20;;
20445;SDS011;10382;49.140;9.234;2023-12-22T03:54:42;2.73;;;2.00;;
20445;SDS011;10382;49.140;9.234;2023-12-22T03:57:09;3.90;;;2.70;;
20445;SDS011;10382;49.140;9.234;2023-12-22T03:59:36;5.80;;;2.07;;
20445;SDS011;10382;49.140;9.234;2023-12-22T04:02:03;8.23;;;2.20;;
20445;SDS011;10382;49.140;9.234;2023-12-22T04:04:31;4.43;;;2.00;;
20445;SDS011;10382;49.140;9.234;2023-12-22T04:06:58;10.73;;;2.00;;
20445;SDS011;10382;49.140;9.234;2023-12-22T04:09:25;3.13;;;2.10;;
20445;SDS011;10382;49.140;9.234;2023-12-22T04:11:52;8.13;;;3.87;;
20445;SDS011;10382;49.140;9.234;2023-12-22T04:14:19;4.70;;;1.70;;
20445;SDS011;10382;49.140;9.234;2023-12-22T04:16:46;4.13;;;2.10;;
20445;SDS011;10382;49.140;9.234;2023-12-22T04:19:13;5.27;;;1.93;;
20445;SDS011;10382;49.140;9.234;2023-12-22T04:21:41;12.07;;;2.50;;
20445;SDS011;10382;49.140;9.234;2023-12-22T04:24:08;7.80;;;2.40;;
20445;SDS011;10382;49.140;9.234;2023-12-22T04:26:35;3.40;;;1.87;;
20445;SDS011;10382;49.140;9.234;2023-12-22T04:29:02;4.77;;;2.53;;
20445;SDS011;10382;49.140;9.234;2023-12-22T04:31:29;3.57;;;1.63;;
20445;SDS011;10382;49.140;9.234;2023-12-22T04:33:56;7.23;;;1.77;;
20445;SDS011;10382;49.140;9.234;2023-12-22T04:36:23;2.83;;;1.60;;
20445;SDS011;10382;49.140;9.234;2023-12-22T04:38:51;5.65;;;1.77;;
20445;SDS011;10382;49.140;9.234;2023-12-22T04:41:18;3.50;;;1.77;;
20445;SDS011;10382;49.140;9.234;2023-12-22T04:43:45;2.20;;;1.50;;
20445;SDS011;10382;49.140;9.234;2023-12-22T04:46:11;4.80;;;1.80;;
20445;SDS011;10382;49.140;9.234;2023-12-22T04:48:38;3.90;;;1.70;;
20445;SDS011;10382;49.140;9.234;2023-12-22T04:51:05;1.90;;;1.80;;
20445;SDS011;10382;49.140;9.234;2023-12-22T04:53:32;6.80;;;4.30;;
20445;SDS011;10382;49.140;9.234;2023-12-22T04:56:00;6.03;;;2.13;;
20445;SDS011;10382;49.140;9.234;2023-12-22T04:58:27;8.83;;;2.60;;
20445;SDS011;10382;49.140;9.234;2023-12-22T05:00:54;5.53;;;1.80;;
20445;SDS011;10382;49.140;9.234;2023-12-22T05:03:21;8.90;;;1.87;;
20445;SDS011;10382;49.140;9.234;2023-12-22T05:05:47;3.77;;;2.10;;
20445;SDS011;10382;49.140;9.234;2023-12-22T05:08:14;4.97;;;1.77;;
20445;SDS011;10382;49.140;9.234;2023-12-22T05:10:41;12.10;;;2.60;;
20445;SDS011;10382;49.140;9.234;2023-12-22T05:13:09;6.03;;;2.17;;
20445;SDS011;10382;49.140;9.234;2023-12-22T05:15:36;7.10;;;2.13;;
20445;SDS011;10382;49.140;9.234;2023-12-22T05:18:03;4.73;;;2.50;;
20445;SDS011;10382;49.140;9.234;2023-12-22T05:20:30;7.93;;;2.20;;
20445;SDS011;10382;49.140;9.234;2023-12-22T05:22:57;7.97;;;1.90;;
20445;SDS011;10382;49.140;9.234;2023-12-22T05:25:24;5.67;;;1.60;;
20445;SDS011;10382;49.140;9.234;2023-12-22T05:27:51;10.80;;;3.10;;
20445;SDS011;10382;49.140;9.234;2023-12-22T05:30:19;5.60;;;2.00;;
20445;SDS011;10382;49.140;9.234;2023-12-22T05:32:46;7.43;;;3.30;;
20445;SDS011;10382;49.140;9.234;2023-12-22T05:35:13;8.93;;;2.80;;
20445;SDS011;10382;49.140;9.234;2023-12-22T05:37:40;8.90;;;2.30;;
20445;SDS011;10382;49.140;9.234;2023-12-22T05:40:07;7.10;;;2.90;;
20445;SDS011;10382;49.140;9.234;2023-12-22T05:42:35;8.80;;;2.30;;
20445;SDS011;10382;49.140;9.234;2023-12-22T05:45:01;8.90;;;2.87;;
20445;SDS011;10382;49.140;9.234;2023-12-22T05:47:30;6.30;;;2.30;;
20445;SDS011;10382;49.140;9.234;2023-12-22T05:49:57;2.37;;;2.17;;
20445;SDS011;10382;49.140;9.234;2023-12-22T05:52:24;1.33;;;1.23;;
20445;SDS011;10382;49.140;9.234;2023-12-22T05:54:51;6.47;;;2.30;;
20445;SDS011;10382;49.140;9.234;2023-12-22T05:57:19;6.03;;;1.50;;
20445;SDS011;10382;49.140;9.234;2023-12-22T05:59:46;10.47;;;2.80;;
20445;SDS011;10382;49.140;9.234;2023-12-22T06:02:13;7.63;;;2.37;;
20445;SDS011;10382;49.140;9.234;2023-12-22T06:04:41;3.13;;;1.50;;
20445;SDS011;10382;49.140;9.234;2023-12-22T06:07:09;9.80;;;2.10;;
20445;SDS011;10382;49.140;9.234;2023-12-22T06:09:36;5.93;;;1.93;;
20445;SDS011;10382;49.140;9.234;2023-12-22T06:12:04;10.40;;;3.70;;
20445;SDS011;10382;49.140;9.234;2023-12-22T06:14:32;7.00;;;1.90;;
20445;SDS011;10382;49.140;9.234;2023-12-22T06:17:00;4.07;;;2.53;;
20445;SDS011;10382;49.140;9.234;2023-12-22T06:19:27;20.83;;;4.80;;
20445;SDS011;10382;49.140;9.234;2023-12-22T06:21:57;10.83;;;2.57;;
20445;SDS011;10382;49.140;9.234;2023-12-22T06:24:25;1.80;;;1.27;;
20445;SDS011;10382;49.140;9.234;2023-12-22T06:26:52;11.70;;;3.00;;
20445;SDS011;10382;49.140;9.234;2023-12-22T06:29:18;2.30;;;2.07;;
20445;SDS011;10382;49.140;9.234;2023-12-22T06:31:45;8.50;;;2.87;;
20445;SDS011;10382;49.140;9.234;2023-12-22T06:34:15;7.20;;;2.40;;
20445;SDS011;10382;49.140;9.234;2023-12-22T06:36:42;8.37;;;2.60;;
20445;SDS011;10382;49.140;9.234;2023-12-22T06:39:11;5.63;;;3.53;;
20445;SDS011;10382;49.140;9.234;2023-12-22T06:41:37;11.70;;;2.20;;
20445;SDS011;10382;49.140;9.234;2023-12-22T06:44:04;7.73;;;2.80;;
20445;SDS011;10382;49.140;9.234;2023-12-22T06:46:31;9.63;;;2.90;;
20445;SDS011;10382;49.140;9.234;2023-12-22T06:48:58;7.40;;;2.27;;
20445;SDS011;10382;49.140;9.234;2023-12-22T06:51:26;16.00;;;2.87;;
20445;SDS011;10382;49.140;9.234;2023-12-22T06:53:55;8.90;;;2.37;;
20445;SDS011;10382;49.140;9.234;2023-12-22T06:56:26;12.13;;;2.97;;
20445;SDS011;10382;49.140;9.234;2023-12-22T06:58:55;16.70;;;2.90;;
20445;SDS011;10382;49.140;9.234;2023-12-22T07:01:24;8.87;;;2.50;;
20445;SDS011;10382;49.140;9.234;2023-12-22T07:03:53;7.13;;;2.50;;
20445;SDS011;10382;49.140;9.234;2023-12-22T07:06:21;12.33;;;4.40;;
20445;SDS011;10382;49.140;9.234;2023-12-22T07:11:59;10.20;;;2.50;;
20445;SDS011;10382;49.140;9.234;2023-12-22T07:14:26;18.13;;;3.40;;
20445;SDS011;10382;49.140;9.234;2023-12-22T07:16:53;18.17;;;3.43;;
20445;SDS011;10382;49.140;9.234;2023-12-22T07:19:20;11.60;;;3.23;;
20445;SDS011;10382;49.140;9.234;2023-12-22T07:21:47;6.70;;;2.73;;
20445;SDS011;10382;49.140;9.234;2023-12-22T07:24:14;20.83;;;3.20;;
20445;SDS011;10382;49.140;9.234;2023-12-22T07:26:41;6.97;;;2.50;;
20445;SDS011;10382;49.140;9.234;2023-12-22T07:29:10;11.73;;;2.87;;
20445;SDS011;10382;49.140;9.234;2023-12-22T07:31:37;14.23;;;2.90;;
20445;SDS011;10382;49.140;9.234;2023-12-22T07:34:04;11.77;;;3.30;;
20445;SDS011;10382;49.140;9.234;2023-12-22T07:36:31;11.80;;;2.80;;
20445;SDS011;10382;49.140;9.234;2023-12-22T07:38:58;17.60;;;2.67;;
20445;SDS011;10382;49.140;9.234;2023-12-22T07:41:25;11.63;;;3.73;;
20445;SDS011;10382;49.140;9.234;2023-12-22T07:43:52;10.33;;;2.23;;
20445;SDS011;10382;49.140;9.234;2023-12-22T07:46:20;7.90;;;3.43;;
20445;SDS011;10382;49.140;9.234;2023-12-22T07:48:48;10.63;;;2.40;;
20445;SDS011;10382;49.140;9.234;2023-12-22T07:51:15;5.90;;;2.53;;
20445;SDS011;10382;49.140;9.234;2023-12-22T07:53:42;6.07;;;2.53;;
20445;SDS011;10382;49.140;9.234;2023-12-22T07:56:09;6.10;;;2.13;;
20445;SDS011;10382;49.140;9.234;2023-12-22T07:58:36;6.23;;;1.80;;
20445;SDS011;10382;49.140;9.234;2023-12-22T08:01:03;13.50;;;3.27;;
20445;SDS011;10382;49.140;9.234;2023-12-22T08:03:33;10.37;;;3.30;;
20445;SDS011;10382;49.140;9.234;2023-12-22T08:06:00;11.87;;;3.00;;
20445;SDS011;10382;49.140;9.234;2023-12-22T08:08:27;12.83;;;3.33;;
20445;SDS011;10382;49.140;9.234;2023-12-22T08:10:53;7.43;;;2.80;;
20445;SDS011;10382;49.140;9.234;2023-12-22T08:13:20;4.83;;;2.90;;
20445;SDS011;10382;49.140;9.234;2023-12-22T08:15:47;11.97;;;3.03;;
20445;SDS011;10382;49.140;9.234;2023-12-22T08:18:14;5.63;;;3.00;;
20445;SDS011;10382;49.140;9.234;2023-12-22T08:20:42;14.00;;;4.40;;
20445;SDS011;10382;49.140;9.234;2023-12-22T08:23:09;3.87;;;2.27;;
20445;SDS011;10382;49.140;9.234;2023-12-22T08:25:37;12.67;;;3.40;;
20445;SDS011;10382;49.140;9.234;2023-12-22T08:28:05;9.93;;;3.83;;
20445;SDS011;10382;49.140;9.234;2023-12-22T08:30:32;4.37;;;2.10;;
20445;SDS011;10382;49.140;9.234;2023-12-22T08:32:59;13.90;;;3.20;;
20445;SDS011;10382;49.140;9.234;2023-12-22T08:35:26;14.90;;;2.47;;
20445;SDS011;10382;49.140;9.234;2023-12-22T08:37:54;17.20;;;3.33;;
20445;SDS011;10382;49.140;9.234;2023-12-22T08:40:22;6.17;;;2.27;;
20445;SDS011;10382;49.140;9.234;2023-12-22T08:42:51;5.47;;;2.47;;
20445;SDS011;10382;49.140;9.234;2023-12-22T08:45:24;15.13;;;5.50;;
20445;SDS011;10382;49.140;9.234;2023-12-22T08:47:53;9.40;;;3.53;;
20445;SDS011;10382;49.140;9.234;2023-12-22T08:50:20;10.97;;;2.50;;
20445;SDS011;10382;49.140;9.234;2023-12-22T08:52:47;5.03;;;3.00;;
20445;SDS011;10382;49.140;9.234;2023-12-22T08:55:16;5.57;;;3.27;;
20445;SDS011;10382;49.140;9.234;2023-12-22T08:57:42;7.37;;;3.50;;
20445;SDS011;10382;49.140;9.234;2023-12-22T09:00:10;11.73;;;4.07;;
20445;SDS011;10382;49.140;9.234;2023-12-22T09:02:38;14.80;;;3.50;;
20445;SDS011;10382;49.140;9.234;2023-12-22T09:05:05;16.30;;;4.87;;
20445;SDS011;10382;49.140;9.234;2023-12-22T09:07:32;8.03;;;3.33;;
20445;SDS011;10382;49.140;9.234;2023-12-22T09:09:59;10.97;;;4.00;;
20445;SDS011;10382;49.140;9.234;2023-12-22T09:12:27;13.53;;;3.30;;
20445;SDS011;10382;49.140;9.234;2023-12-22T09:14:55;15.70;;;3.73;;
20445;SDS011;10382;49.140;9.234;2023-12-22T09:17:23;11.83;;;2.60;;
20445;SDS011;10382;49.140;9.234;2023-12-22T09:19:52;18.13;;;4.23;;
20445;SDS011;10382;49.140;9.234;2023-12-22T09:22:19;12.90;;;3.97;;
20445;SDS011;10382;49.140;9.234;2023-12-22T09:24:46;23.00;;;4.20;;
20445;SDS011;10382;49.140;9.234;2023-12-22T09:27:13;22.10;;;5.00;;
20445;SDS011;10382;49.140;9.234;2023-12-22T09:29:42;12.80;;;4.50;;
20445;SDS011;10382;49.140;9.234;2023-12-22T09:32:09;22.07;;;4.47;;
20445;SDS011;10382;49.140;9.234;2023-12-22T09:34:36;16.07;;;4.73;;
20445;SDS011;10382;49.140;9.234;2023-12-22T09:37:04;13.40;;;4.03;;
20445;SDS011;10382;49.140;9.234;2023-12-22T09:39:30;17.13;;;5.23;;
20445;SDS011;10382;49.140;9.234;2023-12-22T09:41:57;12.90;;;3.70;;
20445;SDS011;10382;49.140;9.234;2023-12-22T09:44:24;16.37;;;3.97;;
20445;SDS011;10382;49.140;9.234;2023-12-22T09:46:58;17.77;;;4.47;;
20445;SDS011;10382;49.140;9.234;2023-12-22T09:49:29;24.33;;;5.20;;
20445;SDS011;10382;49.140;9.234;2023-12-22T09:51:56;14.87;;;5.77;;
20445;SDS011;10382;49.140;9.234;2023-12-22T09:54:23;20.97;;;4.23;;
20445;SDS011;10382;49.140;9.234;2023-12-22T09:56:51;13.77;;;3.80;;
20445;SDS011;10382;49.140;9.234;2023-12-22T09:59:19;16.57;;;5.37;;
20445;SDS011;10382;49.140;9.234;2023-12-22T10:01:49;25.43;;;5.33;;
20445;SDS011;10382;49.140;9.234;2023-12-22T10:04:20;17.60;;;4.47;;
20445;SDS011;10382;49.140;9.234;2023-12-22T10:06:47;15.67;;;4.93;;
20445;SDS011;10382;49.140;9.234;2023-12-22T10:09:14;27.50;;;5.73;;
20445;SDS011;10382;49.140;9.234;2023-12-22T10:11:43;41.57;;;4.77;;
20445;SDS011;10382;49.140;9.234;2023-12-22T10:14:10;21.00;;;4.60;;
20445;SDS011;10382;49.140;9.234;2023-12-22T10:16:45;19.53;;;4.60;;
20445;SDS011;10382;49.140;9.234;2023-12-22T10:19:12;17.53;;;4.27;;
20445;SDS011;10382;49.140;9.234;2023-12-22T10:21:41;22.73;;;4.63;;
20445;SDS011;10382;49.140;9.234;2023-12-22T10:24:09;14.30;;;5.97;;
20445;SDS011;10382;49.140;9.234;2023-12-22T10:27:03;28.17;;;5.20;;
20445;SDS011;10382;49.140;9.234;2023-12-22T10:29:30;22.90;;;4.17;;
20445;SDS011;10382;49.140;9.234;2023-12-22T10:31:57;10.87;;;3.60;;
20445;SDS011;10382;49.140;9.234;2023-12-22T10:34:24;20.10;;;4.83;;
20445;SDS011;10382;49.140;9.234;2023-12-22T10:36:52;23.33;;;4.80;;
20445;SDS011;10382;49.140;9.234;2023-12-22T10:39:19;25.53;;;4.73;;
20445;SDS011;10382;49.140;9.234;2023-12-22T10:41:47;11.10;;;3.97;;
20445;SDS011;10382;49.140;9.234;2023-12-22T10:44:15;28.33;;;5.10;;
20445;SDS011;10382;49.140;9.234;2023-12-22T10:46:43;20.73;;;6.07;;
20445;SDS011;10382;49.140;9.234;2023-12-22T10:49:10;11.90;;;4.83;;
20445;SDS011;10382;49.140;9.234;2023-12-22T10:51:37;21.23;;;5.27;;
20445;SDS011;10382;49.140;9.234;2023-12-22T10:54:05;22.53;;;4.33;;
20445;SDS011;10382;49.140;9.234;2023-12-22T10:56:32;19.27;;;4.93;;
20445;SDS011;10382;49.140;9.234;2023-12-22T10:58:59;29.10;;;5.07;;
20445;SDS011;10382;49.140;9.234;2023-12-22T11:01:28;23.43;;;4.37;;
20445;SDS011;10382;49.140;9.234;2023-12-22T11:03:57;25.07;;;5.10;;
20445;SDS011;10382;49.140;9.234;2023-12-22T11:06:27;26.00;;;5.40;;
20445;SDS011;10382;49.140;9.234;2023-12-22T11:08:56;18.20;;;5.23;;
20445;SDS011;10382;49.140;9.234;2023-12-22T11:11:26;19.03;;;4.33;;
20445;SDS011;10382;49.140;9.234;2023-12-22T11:13:55;25.73;;;5.50;;
20445;SDS011;10382;49.140;9.234;2023-12-22T11:16:23;15.13;;;5.50;;
20445;SDS011;10382;49.140;9.234;2023-12-22T11:18:51;22.77;;;5.70;;
20445;SDS011;10382;49.140;9.234;2023-12-22T11:21:20;19.30;;;4.50;;
20445;SDS011;10382;49.140;9.234;2023-12-22T11:23:49;17.97;;;4.37;;
20445;SDS011;10382;49.140;9.234;2023-12-22T11:26:16;19.70;;;4.63;;
20445;SDS011;10382;49.140;9.234;2023-12-22T11:28:46;20.33;;;5.13;;
20445;SDS011;10382;49.140;9.234;2023-12-22T11:31:13;21.00;;;5.30;;
20445;SDS011;10382;49.140;9.234;2023-12-22T11:33:43;14.43;;;4.60;;
20445;SDS011;10382;49.140;9.234;2023-12-22T11:36:11;20.60;;;4.53;;
20445;SDS011;10382;49.140;9.234;2023-12-22T11:38:39;19.70;;;5.30;;
20445;SDS011;10382;49.140;9.234;2023-12-22T11:41:07;25.17;;;5.20;;
20445;SDS011;10382;49.140;9.234;2023-12-22T11:43:35;8.77;;;3.63;;
20445;SDS011;10382;49.140;9.234;2023-12-22T11:46:05;8.40;;;3.23;;
20445;SDS011;10382;49.140;9.234;2023-12-22T11:48:32;16.07;;;3.83;;
20445;SDS011;10382;49.140;9.234;2023-12-22T11:50:59;15.77;;;4.73;;
20445;SDS011;10382;49.140;9.234;2023-12-22T11:53:30;9.20;;;3.80;;
20445;SDS011;10382;49.140;9.234;2023-12-22T11:56:01;14.10;;;3.17;;
20445;SDS011;10382;49.140;9.234;2023-12-22T12:01:21;8.83;;;3.37;;
20445;SDS011;10382;49.140;9.234;2023-12-22T12:03:49;12.47;;;4.33;;
20445;SDS011;10382;49.140;9.234;2023-12-22T12:06:21;4.33;;;2.93;;
20445;SDS011;10382;49.140;9.234;2023-12-22T12:08:56;16.43;;;3.00;;
20445;SDS011;10382;49.140;9.234;2023-12-22T12:11:23;10.53;;;3.37;;
20445;SDS011;10382;49.140;9.234;2023-12-22T12:14:11;10.77;;;3.80;;
20445;SDS011;10382;49.140;9.234;2023-12-22T12:16:41;11.43;;;2.83;;
20445;SDS011;10382;49.140;9.234;2023-12-22T12:19:08;8.27;;;2.57;;
20445;SDS011;10382;49.140;9.234;2023-12-22T12:21:36;12.87;;;3.30;;
20445;SDS011;10382;49.140;9.234;2023-12-22T12:24:04;9.83;;;4.47;;
20445;SDS011;10382;49.140;9.234;2023-12-22T12:26:31;8.27;;;2.70;;
20445;SDS011;10382;49.140;9.234;2023-12-22T12:29:00;7.03;;;4.10;;
20445;SDS011;10382;49.140;9.234;2023-12-22T12:31:35;8.77;;;3.87;;
20445;SDS011;10382;49.140;9.234;2023-12-22T12:34:05;14.73;;;3.80;;
20445;SDS011;10382;49.140;9.234;2023-12-22T12:36:33;9.87;;;2.70;;
20445;SDS011;10382;49.140;9.234;2023-12-22T12:39:01;3.87;;;2.50;;
20445;SDS011;10382;49.140;9.234;2023-12-22T12:41:40;13.20;;;2.87;;
20445;SDS011;10382;49.140;9.234;2023-12-22T12:44:08;4.50;;;2.57;;
20445;SDS011;10382;49.140;9.234;2023-12-22T12:46:36;3.23;;;2.03;;
20445;SDS011;10382;49.140;9.234;2023-12-22T12:49:05;6.30;;;3.83;;
20445;SDS011;10382;49.140;9.234;2023-12-22T12:51:36;2.50;;;2.17;;
20445;SDS011;10382;49.140;9.234;2023-12-22T12:54:04;8.73;;;4.90;;
20445;SDS011;10382;49.140;9.234;2023-12-22T12:56:35;4.30;;;2.83;;
20445;SDS011;10382;49.140;9.234;2023-12-22T12:59:06;9.93;;;4.23;;
20445;SDS011;10382;49.140;9.234;2023-12-22T13:01:37;5.83;;;2.73;;
20445;SDS011;10382;49.140;9.234;2023-12-22T13:04:06;13.60;;;5.03;;
20445;SDS011;10382;49.140;9.234;2023-12-22T13:06:33;5.60;;;2.27;;
20445;SDS011;10382;49.140;9.234;2023-12-22T13:09:00;9.40;;;3.80;;
20445;SDS011;10382;49.140;9.234;2023-12-22T13:11:27;2.83;;;2.53;;
20445;SDS011;10382;49.140;9.234;2023-12-22T13:13:56;5.87;;;3.67;;
20445;SDS011;10382;49.140;9.234;2023-12-22T13:16:24;5.50;;;2.87;;
20445;SDS011;10382;49.140;9.234;2023-12-22T13:18:52;5.40;;;3.33;;
20445;SDS011;10382;49.140;9.234;2023-12-22T13:21:21;8.00;;;4.37;;
20445;SDS011;10382;49.140;9.234;2023-12-22T13:24:06;6.03;;;3.13;;
20445;SDS011;10382;49.140;9.234;2023-12-22T13:26:34;2.23;;;2.10;;
20445;SDS011;10382;49.140;9.234;2023-12-22T13:29:01;4.17;;;2.10;;
20445;SDS011;10382;49.140;9.234;2023-12-22T13:31:28;3.73;;;3.13;;
20445;SDS011;10382;49.140;9.234;2023-12-22T13:33:56;4.40;;;2.87;;
20445;SDS011;10382;49.140;9.234;2023-12-22T13:36:25;1.93;;;1.83;;
20445;SDS011;10382;49.140;9.234;2023-12-22T13:38:52;2.60;;;2.23;;
20445;SDS011;10382;49.140;9.234;2023-12-22T13:41:19;4.97;;;1.93;;
20445;SDS011;10382;49.140;9.234;2023-12-22T13:43:46;3.40;;;1.90;;
20445;SDS011;10382;49.140;9.234;2023-12-22T13:46:13;3.63;;;2.20;;
20445;SDS011;10382;49.140;9.234;2023-12-22T13:48:40;2.83;;;2.47;;
20445;SDS011;10382;49.140;9.234;2023-12-22T13:51:07;1.90;;;1.80;;
20445;SDS011;10382;49.140;9.234;2023-12-22T13:53:37;1.90;;;1.77;;
20445;SDS011;10382;49.140;9.234;2023-12-22T13:56:13;7.47;;;3.33;;
20445;SDS011;10382;49.140;9.234;2023-12-22T13:58:43;3.87;;;3.20;;
20445;SDS011;10382;49.140;9.234;2023-12-22T14:01:12;5.07;;;2.70;;
20445;SDS011;10382;49.140;9.234;2023-12-22T14:03:40;5.80;;;2.80;;
20445;SDS011;10382;49.140;9.234;2023-12-22T14:06:07;2.30;;;2.10;;
20445;SDS011;10382;49.140;9.234;2023-12-22T14:08:34;2.30;;;2.10;;
20445;SDS011;10382;49.140;9.234;2023-12-22T14:11:03;4.00;;;2.40;;
20445;SDS011;10382;49.140;9.234;2023-12-22T14:13:30;2.50;;;2.20;;
20445;SDS011;10382;49.140;9.234;2023-12-22T14:15:58;10.27;;;3.07;;
20445;SDS011;10382;49.140;9.234;2023-12-22T14:18:24;3.50;;;2.10;;
20445;SDS011;10382;49.140;9.234;2023-12-22T14:20:51;2.40;;;2.17;;
20445;SDS011;10382;49.140;9.234;2023-12-22T14:23:18;3.27;;;2.10;;
20445;SDS011;10382;49.140;9.234;2023-12-22T14:25:47;5.63;;;3.90;;
20445;SDS011;10382;49.140;9.234;2023-12-22T14:28:14;3.60;;;2.80;;
20445;SDS011;10382;49.140;9.234;2023-12-22T14:30:41;3.07;;;2.70;;
20445;SDS011;10382;49.140;9.234;2023-12-22T14:33:08;2.40;;;2.20;;
20445;SDS011;10382;49.140;9.234;2023-12-22T14:35:35;3.27;;;2.83;;
20445;SDS011;10382;49.140;9.234;2023-12-22T14:38:03;2.90;;;2.60;;
20445;SDS011;10382;49.140;9.234;2023-12-22T14:40:30;3.17;;;2.93;;
20445;SDS011;10382;49.140;9.234;2023-12-22T14:42:59;4.40;;;3.70;;
20445;SDS011;10382;49.140;9.234;2023-12-22T14:45:27;4.73;;;2.50;;
20445;SDS011;10382;49.140;9.234;2023-12-22T14:47:54;2.83;;;2.50;;
20445;SDS011;10382;49.140;9.234;2023-12-22T14:50:21;5.10;;;3.93;;
20445;SDS011;10382;49.140;9.234;2023-12-22T14:52:48;2.30;;;2.10;;